SJNE weather

Wapum Airport
Bonfim, Roraima, Brazil

Public forecast

Using degrees Celsius for public forecast. Weather courtesy of forecast.io.

METAR (pilot weather report)

Closest report is Atlas Brasil Cantanhede Airport, 67.5 nm (125.0 km) NW. Retrieved 2019/03/19 21:00 UTC (41 minutes ago):

SBBV 192100Z 10011KT 9999 SCT040 35/17 Q1008

TAF (pilot weather forecast)

Closest forecast is Atlas Brasil Cantanhede Airport, 67.5 nm (125.0 km) NW. Retrieved 2019/03/19 18:30 UTC (3 hours ago):

TAF SBBV 191600Z 1918/2018 08012KT CAVOK TX35/1919Z TN25/2007Z BECMG 1923/2001 08008KT RMK PEM